sensor_id;sensor_type;location;lat;lon;timestamp;temperature;humidity
5631;DHT22;2837;50.990;7.124;2022-12-01T06:02:09;9.10;99.90
5631;DHT22;2837;50.990;7.124;2022-12-01T06:04:35;9.10;99.90
5631;DHT22;2837;50.990;7.124;2022-12-01T06:07:00;9.10;99.90
5631;DHT22;2837;50.990;7.124;2022-12-01T06:09:26;9.20;99.90
5631;DHT22;2837;50.990;7.124;2022-12-01T06:11:51;9.10;99.90
5631;DHT22;2837;50.990;7.124;2022-12-01T06:14:17;9.20;99.90
5631;DHT22;2837;50.990;7.124;2022-12-01T06:16:52;9.20;99.90
5631;DHT22;2837;50.990;7.124;2022-12-01T06:19:17;9.10;99.90
5631;DHT22;2837;50.990;7.124;2022-12-01T06:21:43;9.20;99.90
5631;DHT22;2837;50.990;7.124;2022-12-01T06:24:11;9.00;99.90
5631;DHT22;2837;50.990;7.124;2022-12-01T06:26:36;9.00;99.90
5631;DHT22;2837;50.990;7.124;2022-12-01T06:29:02;9.00;99.90
5631;DHT22;2837;50.990;7.124;2022-12-01T06:31:27;8.90;99.90
5631;DHT22;2837;50.990;7.124;2022-12-01T06:33:53;8.90;99.90
5631;DHT22;2837;50.990;7.124;2022-12-01T06:36:18;9.00;99.90
5631;DHT22;2837;50.990;7.124;2022-12-01T06:38:44;9.00;99.90
5631;DHT22;2837;50.990;7.124;2022-12-01T06:41:09;9.00;99.90
5631;DHT22;2837;50.990;7.124;2022-12-01T06:43:36;9.00;99.90
5631;DHT22;2837;50.990;7.124;2022-12-01T06:46:03;9.00;99.90
5631;DHT22;2837;50.990;7.124;2022-12-01T06:48:30;9.00;99.90
5631;DHT22;2837;50.990;7.124;2022-12-01T06:50:59;9.00;99.90
5631;DHT22;2837;50.990;7.124;2022-12-01T06:53:25;9.00;99.90
5631;DHT22;2837;50.990;7.124;2022-12-01T06:55:53;9.00;99.90
5631;DHT22;2837;50.990;7.124;2022-12-01T06:58:19;9.10;99.90
5631;DHT22;2837;50.990;7.124;2022-12-01T07:00:44;9.10;99.90
5631;DHT22;2837;50.990;7.124;2022-12-01T07:03:10;9.20;99.90
5631;DHT22;2837;50.990;7.124;2022-12-01T07:05:35;9.10;99.90
5631;DHT22;2837;50.990;7.124;2022-12-01T07:08:01;9.10;99.90
5631;DHT22;2837;50.990;7.124;2022-12-01T07:10:27;9.00;99.90
5631;DHT22;2837;50.990;7.124;2022-12-01T07:12:55;9.00;99.90
5631;DHT22;2837;50.990;7.124;2022-12-01T07:15:21;8.90;99.90
5631;DHT22;2837;50.990;7.124;2022-12-01T07:17:49;8.80;99.90
5631;DHT22;2837;50.990;7.124;2022-12-01T07:20:14;8.90;99.90
5631;DHT22;2837;50.990;7.124;2022-12-01T07:22:40;8.80;99.90
5631;DHT22;2837;50.990;7.124;2022-12-01T07:25:07;8.90;99.90
5631;DHT22;2837;50.990;7.124;2022-12-01T07:27:33;8.90;99.90
5631;DHT22;2837;50.990;7.124;2022-12-01T07:29:59;8.90;99.90
5631;DHT22;2837;50.990;7.124;2022-12-01T07:32:25;8.90;99.90
5631;DHT22;2837;50.990;7.124;2022-12-01T07:34:50;9.00;99.90
5631;DHT22;2837;50.990;7.124;2022-12-01T07:37:16;9.00;99.90
5631;DHT22;2837;50.990;7.124;2022-12-01T07:39:41;9.00;99.90
5631;DHT22;2837;50.990;7.124;2022-12-01T07:42:07;9.00;99.90
5631;DHT22;2837;50.990;7.124;2022-12-01T07:44:32;9.00;99.90
5631;DHT22;2837;50.990;7.124;2022-12-01T07:46:58;9.00;99.90
5631;DHT22;2837;50.990;7.124;2022-12-01T07:49:24;8.90;99.90
5631;DHT22;2837;50.990;7.124;2022-12-01T07:51:49;8.90;99.90
5631;DHT22;2837;50.990;7.124;2022-12-01T07:54:15;8.90;99.90
5631;DHT22;2837;50.990;7.124;2022-12-01T07:56:42;9.00;99.90
5631;DHT22;2837;50.990;7.124;2022-12-01T07:59:07;8.90;99.90
5631;DHT22;2837;50.990;7.124;2022-12-01T08:01:33;8.90;99.90
5631;DHT22;2837;50.990;7.124;2022-12-01T08:03:59;8.90;99.90
5631;DHT22;2837;50.990;7.124;2022-12-01T08:06:26;9.00;99.90
5631;DHT22;2837;50.990;7.124;2022-12-01T08:08:51;9.00;99.90
5631;DHT22;2837;50.990;7.124;2022-12-01T08:11:23;9.00;99.90
5631;DHT22;2837;50.990;7.124;2022-12-01T08:13:49;9.00;99.90
5631;DHT22;2837;50.990;7.124;2022-12-01T08:16:17;8.90;99.90
5631;DHT22;2837;50.990;7.124;2022-12-01T08:18:43;8.90;99.90
5631;DHT22;2837;50.990;7.124;2022-12-01T08:21:11;8.90;99.90
5631;DHT22;2837;50.990;7.124;2022-12-01T08:23:37;8.90;99.90
5631;DHT22;2837;50.990;7.124;2022-12-01T08:26:05;8.90;99.90
5631;DHT22;2837;50.990;7.124;2022-12-01T08:28:34;8.90;99.90
5631;DHT22;2837;50.990;7.124;2022-12-01T08:31:06;8.90;99.90
5631;DHT22;2837;50.990;7.124;2022-12-01T08:33:32;8.90;99.90
5631;DHT22;2837;50.990;7.124;2022-12-01T08:36:01;8.90;99.90
5631;DHT22;2837;50.990;7.124;2022-12-01T08:38:26;9.00;99.90
5631;DHT22;2837;50.990;7.124;2022-12-01T08:40:52;9.00;99.90
5631;DHT22;2837;50.990;7.124;2022-12-01T08:43:20;9.00;99.90
5631;DHT22;2837;50.990;7.124;2022-12-01T08:45:46;9.00;99.90
5631;DHT22;2837;50.990;7.124;2022-12-01T08:48:11;9.00;99.90
5631;DHT22;2837;50.990;7.124;2022-12-01T08:50:37;9.00;99.90
5631;DHT22;2837;50.990;7.124;2022-12-01T08:53:02;9.00;99.90
5631;DHT22;2837;50.990;7.124;2022-12-01T08:55:28;9.10;99.90
5631;DHT22;2837;50.990;7.124;2022-12-01T08:57:53;9.10;99.90
5631;DHT22;2837;50.990;7.124;2022-12-01T09:00:19;9.10;99.90
5631;DHT22;2837;50.990;7.124;2022-12-01T09:02:45;9.10;99.90
5631;DHT22;2837;50.990;7.124;2022-12-01T09:05:10;9.20;99.90
5631;DHT22;2837;50.990;7.124;2022-12-01T09:07:36;9.20;99.90
5631;DHT22;2837;50.990;7.124;2022-12-01T09:10:01;9.20;99.90
5631;DHT22;2837;50.990;7.124;2022-12-01T09:12:28;9.10;99.90
5631;DHT22;2837;50.990;7.124;2022-12-01T09:14:53;9.10;99.90
5631;DHT22;2837;50.990;7.124;2022-12-01T09:17:19;9.10;99.90
5631;DHT22;2837;50.990;7.124;2022-12-01T09:19:45;9.20;99.90
5631;DHT22;2837;50.990;7.124;2022-12-01T09:22:11;9.30;99.90
5631;DHT22;2837;50.990;7.124;2022-12-01T09:24:36;9.30;99.90
5631;DHT22;2837;50.990;7.124;2022-12-01T09:27:03;9.30;99.90
5631;DHT22;2837;50.990;7.124;2022-12-01T09:29:29;9.20;99.90
5631;DHT22;2837;50.990;7.124;2022-12-01T09:31:56;9.20;99.90
5631;DHT22;2837;50.990;7.124;2022-12-01T09:34:22;9.20;99.90
5631;DHT22;2837;50.990;7.124;2022-12-01T09:36:48;9.20;99.90
5631;DHT22;2837;50.990;7.124;2022-12-01T09:39:19;9.20;99.90
5631;DHT22;2837;50.990;7.124;2022-12-01T09:41:48;9.30;99.90
5631;DHT22;2837;50.990;7.124;2022-12-01T09:44:23;9.30;99.90
5631;DHT22;2837;50.990;7.124;2022-12-01T09:46:56;9.30;99.90
5631;DHT22;2837;50.990;7.124;2022-12-01T09:52:12;9.30;99.90
5631;DHT22;2837;50.990;7.124;2022-12-01T09:54:39;9.30;99.90
5631;DHT22;2837;50.990;7.124;2022-12-01T09:57:05;9.30;99.90
5631;DHT22;2837;50.990;7.124;2022-12-01T09:59:36;9.30;99.90
5631;DHT22;2837;50.990;7.124;2022-12-01T10:02:33;9.20;99.90
5631;DHT22;2837;50.990;7.124;2022-12-01T10:04:59;9.20;99.90
5631;DHT22;2837;50.990;7.124;2022-12-01T10:07:30;9.20;99.90
5631;DHT22;2837;50.990;7.124;2022-12-01T10:10:00;9.20;99.90
5631;DHT22;2837;50.990;7.124;2022-12-01T10:12:30;9.10;99.90
5631;DHT22;2837;50.990;7.124;2022-12-01T10:15:21;9.10;99.90
5631;DHT22;2837;50.990;7.124;2022-12-01T10:23:40;9.10;99.90
5631;DHT22;2837;50.990;7.124;2022-12-01T10:34:40;9.00;99.90
5631;DHT22;2837;50.990;7.124;2022-12-01T10:37:21;9.10;99.90
5631;DHT22;2837;50.990;7.124;2022-12-01T10:39:50;9.10;99.90
5631;DHT22;2837;50.990;7.124;2022-12-01T10:42:31;9.20;99.90
5631;DHT22;2837;50.990;7.124;2022-12-01T10:45:01;9.20;99.90
5631;DHT22;2837;50.990;7.124;2022-12-01T10:47:27;9.30;99.90
5631;DHT22;2837;50.990;7.124;2022-12-01T10:49:53;9.20;99.90
5631;DHT22;2837;50.990;7.124;2022-12-01T10:52:35;9.20;99.90
5631;DHT22;2837;50.990;7.124;2022-12-01T10:55:03;9.20;99.90
5631;DHT22;2837;50.990;7.124;2022-12-01T10:57:30;9.20;99.90
5631;DHT22;2837;50.990;7.124;2022-12-01T11:00:06;9.20;99.90
5631;DHT22;2837;50.990;7.124;2022-12-01T11:02:34;9.20;99.90
5631;DHT22;2837;50.990;7.124;2022-12-01T11:05:27;9.30;99.90
5631;DHT22;2837;50.990;7.124;2022-12-01T11:07:56;9.30;99.90
5631;DHT22;2837;50.990;7.124;2022-12-01T11:10:25;9.40;99.90
5631;DHT22;2837;50.990;7.124;2022-12-01T11:15:33;9.20;99.90
5631;DHT22;2837;50.990;7.124;2022-12-01T11:18:36;9.20;99.90
5631;DHT22;2837;50.990;7.124;2022-12-01T11:21:34;9.20;99.90
5631;DHT22;2837;50.990;7.124;2022-12-01T11:24:24;9.10;99.90
5631;DHT22;2837;50.990;7.124;2022-12-01T11:26:51;9.00;99.90
5631;DHT22;2837;50.990;7.124;2022-12-01T11:29:32;9.10;99.90
5631;DHT22;2837;50.990;7.124;2022-12-01T11:32:03;9.10;99.90
5631;DHT22;2837;50.990;7.124;2022-12-01T11:34:36;9.00;99.90
5631;DHT22;2837;50.990;7.124;2022-12-01T11:37:06;9.00;99.90
5631;DHT22;2837;50.990;7.124;2022-12-01T11:39:39;9.00;99.90
5631;DHT22;2837;50.990;7.124;2022-12-01T11:42:26;9.00;99.90
5631;DHT22;2837;50.990;7.124;2022-12-01T11:45:17;8.90;99.90
5631;DHT22;2837;50.990;7.124;2022-12-01T11:50:34;9.00;99.90
5631;DHT22;2837;50.990;7.124;2022-12-01T11:53:01;8.90;99.90
5631;DHT22;2837;50.990;7.124;2022-12-01T11:55:29;9.00;99.90
5631;DHT22;2837;50.990;7.124;2022-12-01T11:58:00;9.00;99.90
5631;DHT22;2837;50.990;7.124;2022-12-01T12:00:32;8.90;99.90
5631;DHT22;2837;50.990;7.124;2022-12-01T12:03:07;8.90;99.90
5631;DHT22;2837;50.990;7.124;2022-12-01T12:08:30;8.90;99.90
5631;DHT22;2837;50.990;7.124;2022-12-01T12:11:21;9.00;99.90
5631;DHT22;2837;50.990;7.124;2022-12-01T12:25:04;9.10;99.90
5631;DHT22;2837;50.990;7.124;2022-12-01T12:27:35;9.10;99.90
5631;DHT22;2837;50.990;7.124;2022-12-01T12:30:08;9.10;99.90
5631;DHT22;2837;50.990;7.124;2022-12-01T12:35:36;9.10;99.90
5631;DHT22;2837;50.990;7.124;2022-12-01T12:46:15;9.10;99.90
5631;DHT22;2837;50.990;7.124;2022-12-01T12:48:50;9.00;99.90
5631;DHT22;2837;50.990;7.124;2022-12-01T12:55:01;9.10;99.90
5631;DHT22;2837;50.990;7.124;2022-12-01T12:57:32;9.00;99.90
5631;DHT22;2837;50.990;7.124;2022-12-01T13:00:03;9.00;99.90
5631;DHT22;2837;50.990;7.124;2022-12-01T13:02:56;9.00;99.90
5631;DHT22;2837;50.990;7.124;2022-12-01T13:05:40;9.00;99.90
5631;DHT22;2837;50.990;7.124;2022-12-01T13:08:16;9.00;99.90
5631;DHT22;2837;50.990;7.124;2022-12-01T13:14:19;9.10;99.90
5631;DHT22;2837;50.990;7.124;2022-12-01T13:16:40;9.10;99.90
5631;DHT22;2837;50.990;7.124;2022-12-01T13:19:29;9.00;99.90
5631;DHT22;2837;50.990;7.124;2022-12-01T13:21:57;9.10;99.90
5631;DHT22;2837;50.990;7.124;2022-12-01T13:24:27;9.10;99.90
5631;DHT22;2837;50.990;7.124;2022-12-01T13:27:20;9.20;99.90
5631;DHT22;2837;50.990;7.124;2022-12-01T13:29:51;9.10;99.90
5631;DHT22;2837;50.990;7.124;2022-12-01T13:32:33;9.10;99.90
5631;DHT22;2837;50.990;7.124;2022-12-01T13:35:02;9.10;99.90
5631;DHT22;2837;50.990;7.124;2022-12-01T13:37:32;9.10;99.90
5631;DHT22;2837;50.990;7.124;2022-12-01T13:43:00;9.10;99.90
5631;DHT22;2837;50.990;7.124;2022-12-01T13:45:31;9.20;99.90
5631;DHT22;2837;50.990;7.124;2022-12-01T13:47:58;9.10;99.90
5631;DHT22;2837;50.990;7.124;2022-12-01T13:53:28;9.10;99.90
5631;DHT22;2837;50.990;7.124;2022-12-01T13:58:28;9.20;99.90
5631;DHT22;2837;50.990;7.124;2022-12-01T14:03:56;9.10;99.90
5631;DHT22;2837;50.990;7.124;2022-12-01T14:06:42;9.10;99.90
5631;DHT22;2837;50.990;7.124;2022-12-01T14:12:15;9.10;99.90
5631;DHT22;2837;50.990;7.124;2022-12-01T14:15:03;9.00;99.90
5631;DHT22;2837;50.990;7.124;2022-12-01T14:17:36;9.00;99.90
5631;DHT22;2837;50.990;7.124;2022-12-01T14:20:06;9.10;99.90
5631;DHT22;2837;50.990;7.124;2022-12-01T14:22:46;9.10;99.90
5631;DHT22;2837;50.990;7.124;2022-12-01T14:27:49;9.10;99.90
5631;DHT22;2837;50.990;7.124;2022-12-01T14:38:44;9.00;99.90
5631;DHT22;2837;50.990;7.124;2022-12-01T14:41:18;9.00;99.90
5631;DHT22;2837;50.990;7.124;2022-12-01T14:43:45;9.00;99.90
5631;DHT22;2837;50.990;7.124;2022-12-01T14:46:58;9.10;99.90
5631;DHT22;2837;50.990;7.124;2022-12-01T14:49:31;9.10;99.90
5631;DHT22;2837;50.990;7.124;2022-12-01T14:52:03;9.00;99.90
5631;DHT22;2837;50.990;7.124;2022-12-01T14:54:33;9.00;99.90
5631;DHT22;2837;50.990;7.124;2022-12-01T14:57:03;9.10;99.90
5631;DHT22;2837;50.990;7.124;2022-12-01T14:59:30;9.10;99.90
5631;DHT22;2837;50.990;7.124;2022-12-01T15:02:01;9.10;99.90
5631;DHT22;2837;50.990;7.124;2022-12-01T15:07:20;9.10;99.90
5631;DHT22;2837;50.990;7.124;2022-12-01T15:10:00;9.00;99.90
5631;DHT22;2837;50.990;7.124;2022-12-01T15:12:27;9.00;99.90
5631;DHT22;2837;50.990;7.124;2022-12-01T15:14:54;8.90;99.90
5631;DHT22;2837;50.990;7.124;2022-12-01T15:17:33;8.90;99.90
5631;DHT22;2837;50.990;7.124;2022-12-01T15:20:00;8.90;99.90
5631;DHT22;2837;50.990;7.124;2022-12-01T15:22:29;8.80;99.90
5631;DHT22;2837;50.990;7.124;2022-12-01T15:25:13;8.80;99.90
5631;DHT22;2837;50.990;7.124;2022-12-01T15:27:39;8.80;99.90
5631;DHT22;2837;50.990;7.124;2022-12-01T15:30:05;8.70;99.90
5631;DHT22;2837;50.990;7.124;2022-12-01T15:32:34;8.80;99.90
5631;DHT22;2837;50.990;7.124;2022-12-01T15:35:02;8.80;99.90
5631;DHT22;2837;50.990;7.124;2022-12-01T15:37:41;8.70;99.90
5631;DHT22;2837;50.990;7.124;2022-12-01T15:40:10;8.70;99.90
5631;DHT22;2837;50.990;7.124;2022-12-01T15:42:37;8.70;99.90
5631;DHT22;2837;50.990;7.124;2022-12-01T15:45:19;8.60;99.90
5631;DHT22;2837;50.990;7.124;2022-12-01T15:47:47;8.60;99.90
5631;DHT22;2837;50.990;7.124;2022-12-01T15:52:54;8.60;99.90
5631;DHT22;2837;50.990;7.124;2022-12-01T15:55:27;8.60;99.90
5631;DHT22;2837;50.990;7.124;2022-12-01T15:57:53;8.60;99.90
5631;DHT22;2837;50.990;7.124;2022-12-01T16:00:21;8.60;99.90
5631;DHT22;2837;50.990;7.124;2022-12-01T16:02:55;8.60;99.90
5631;DHT22;2837;50.990;7.124;2022-12-01T16:05:24;8.60;99.90
5631;DHT22;2837;50.990;7.124;2022-12-01T16:07:51;8.50;99.90
5631;DHT22;2837;50.990;7.124;2022-12-01T16:10:29;8.50;99.90
5631;DHT22;2837;50.990;7.124;2022-12-01T16:13:57;8.40;99.90
5631;DHT22;2837;50.990;7.124;2022-12-01T16:18:55;8.30;99.90
5631;DHT22;2837;50.990;7.124;2022-12-01T16:21:21;8.40;99.90
5631;DHT22;2837;50.990;7.124;2022-12-01T16:23:47;8.40;99.90
5631;DHT22;2837;50.990;7.124;2022-12-01T16:26:13;8.40;99.90
5631;DHT22;2837;50.990;7.124;2022-12-01T16:28:38;8.50;99.90
5631;DHT22;2837;50.990;7.124;2022-12-01T16:31:05;8.50;99.90
5631;DHT22;2837;50.990;7.124;2022-12-01T16:33:35;8.60;99.90
5631;DHT22;2837;50.990;7.124;2022-12-01T16:36:02;8.60;99.90
5631;DHT22;2837;50.990;7.124;2022-12-01T16:38:28;8.60;99.90
5631;DHT22;2837;50.990;7.124;2022-12-01T16:40:56;8.60;99.90
5631;DHT22;2837;50.990;7.124;2022-12-01T16:43:24;8.60;99.90
5631;DHT22;2837;50.990;7.124;2022-12-01T16:46:00;8.60;99.90
5631;DHT22;2837;50.990;7.124;2022-12-01T16:48:27;8.60;99.90
5631;DHT22;2837;50.990;7.124;2022-12-01T16:50:53;8.60;99.90
5631;DHT22;2837;50.990;7.124;2022-12-01T16:53:19;8.60;99.90
5631;DHT22;2837;50.990;7.124;2022-12-01T16:55:56;8.60;99.90
5631;DHT22;2837;50.990;7.124;2022-12-01T16:58:22;8.60;99.90
5631;DHT22;2837;50.990;7.124;2022-12-01T17:00:48;8.60;99.90
5631;DHT22;2837;50.990;7.124;2022-12-01T17:03:18;8.60;99.90
5631;DHT22;2837;50.990;7.124;2022-12-01T17:05:44;8.60;99.90
5631;DHT22;2837;50.990;7.124;2022-12-01T17:08:10;8.60;99.90
5631;DHT22;2837;50.990;7.124;2022-12-01T17:10:43;8.60;99.90
5631;DHT22;2837;50.990;7.124;2022-12-01T17:13:09;8.60;99.90
5631;DHT22;2837;50.990;7.124;2022-12-01T17:15:42;8.60;99.90
5631;DHT22;2837;50.990;7.124;2022-12-01T17:18:08;8.60;99.90
5631;DHT22;2837;50.990;7.124;2022-12-01T17:20:34;8.70;99.90
5631;DHT22;2837;50.990;7.124;2022-12-01T17:22:59;8.70;99.90
5631;DHT22;2837;50.990;7.124;2022-12-01T17:25:25;8.70;99.90
5631;DHT22;2837;50.990;7.124;2022-12-01T17:27:51;8.60;99.90
5631;DHT22;2837;50.990;7.124;2022-12-01T17:30:17;8.70;99.90
5631;DHT22;2837;50.990;7.124;2022-12-01T17:32:42;8.70;99.90
5631;DHT22;2837;50.990;7.124;2022-12-01T17:35:08;8.60;99.90
5631;DHT22;2837;50.990;7.124;2022-12-01T17:37:34;8.70;99.90
5631;DHT22;2837;50.990;7.124;2022-12-01T17:40:03;8.70;99.90
5631;DHT22;2837;50.990;7.124;2022-12-01T17:42:30;8.70;99.90
5631;DHT22;2837;50.990;7.124;2022-12-01T17:44:57;8.70;99.90
5631;DHT22;2837;50.990;7.124;2022-12-01T17:47:22;8.70;99.90
5631;DHT22;2837;50.990;7.124;2022-12-01T17:49:48;8.80;99.90
5631;DHT22;2837;50.990;7.124;2022-12-01T17:52:13;8.70;99.90
5631;DHT22;2837;50.990;7.124;2022-12-01T17:54:39;8.70;99.90
5631;DHT22;2837;50.990;7.124;2022-12-01T17:57:04;8.70;99.90
5631;DHT22;2837;50.990;7.124;2022-12-01T17:59:32;8.70;99.90
5631;DHT22;2837;50.990;7.124;2022-12-01T18:01:57;8.70;99.90
5631;DHT22;2837;50.990;7.124;2022-12-01T18:04:23;8.60;99.90
5631;DHT22;2837;50.990;7.124;2022-12-01T18:06:49;8.60;99.90
5631;DHT22;2837;50.990;7.124;2022-12-01T18:09:14;8.60;99.90
5631;DHT22;2837;50.990;7.124;2022-12-01T18:11:40;8.50;99.90
5631;DHT22;2837;50.990;7.124;2022-12-01T18:14:05;8.50;99.90
5631;DHT22;2837;50.990;7.124;2022-12-01T18:16:31;8.50;99.90
5631;DHT22;2837;50.990;7.124;2022-12-01T18:18:58;8.50;99.90
5631;DHT22;2837;50.990;7.124;2022-12-01T18:21:25;8.50;99.90
5631;DHT22;2837;50.990;7.124;2022-12-01T18:23:57;8.50;99.90
5631;DHT22;2837;50.990;7.124;2022-12-01T18:26:23;8.60;99.90
5631;DHT22;2837;50.990;7.124;2022-12-01T18:28:57;8.50;99.90
5631;DHT22;2837;50.990;7.124;2022-12-01T18:31:23;8.40;99.90
5631;DHT22;2837;50.990;7.124;2022-12-01T18:33:49;8.40;99.90
5631;DHT22;2837;50.990;7.124;2022-12-01T18:36:25;8.50;99.90
5631;DHT22;2837;50.990;7.124;2022-12-01T18:38:52;8.40;99.90
5631;DHT22;2837;50.990;7.124;2022-12-01T18:41:19;8.30;99.90
5631;DHT22;2837;50.990;7.124;2022-12-01T18:43:45;8.30;99.90
5631;DHT22;2837;50.990;7.124;2022-12-01T18:46:12;8.30;99.90
5631;DHT22;2837;50.990;7.124;2022-12-01T18:48:46;8.30;99.90
5631;DHT22;2837;50.990;7.124;2022-12-01T18:51:12;8.30;99.90
5631;DHT22;2837;50.990;7.124;2022-12-01T18:53:38;8.30;99.90
5631;DHT22;2837;50.990;7.124;2022-12-01T18:56:06;8.20;99.90
5631;DHT22;2837;50.990;7.124;2022-12-01T18:58:32;8.20;99.90
5631;DHT22;2837;50.990;7.124;2022-12-01T19:00:59;8.20;99.90
5631;DHT22;2837;50.990;7.124;2022-12-01T19:03:28;8.20;99.90
5631;DHT22;2837;50.990;7.124;2022-12-01T19:05:54;8.20;99.90
5631;DHT22;2837;50.990;7.124;2022-12-01T19:08:19;8.20;99.90
5631;DHT22;2837;50.990;7.124;2022-12-01T19:10:47;8.20;99.90
5631;DHT22;2837;50.990;7.124;2022-12-01T19:13:21;8.10;99.90
5631;DHT22;2837;50.990;7.124;2022-12-01T19:15:46;8.10;99.90
5631;DHT22;2837;50.990;7.124;2022-12-01T19:18:12;8.00;99.90
5631;DHT22;2837;50.990;7.124;2022-12-01T19:20:37;8.00;99.90
5631;DHT22;2837;50.990;7.124;2022-12-01T19:23:03;8.00;99.90
5631;DHT22;2837;50.990;7.124;2022-12-01T19:25:28;7.90;99.90
5631;DHT22;2837;50.990;7.124;2022-12-01T19:27:54;7.90;99.90
5631;DHT22;2837;50.990;7.124;2022-12-01T19:30:20;8.00;99.90
5631;DHT22;2837;50.990;7.124;2022-12-01T19:32:45;8.00;99.90
5631;DHT22;2837;50.990;7.124;2022-12-01T19:35:11;8.00;99.90
5631;DHT22;2837;50.990;7.124;2022-12-01T19:37:36;8.00;99.90
5631;DHT22;2837;50.990;7.124;2022-12-01T19:40:02;8.10;99.90
5631;DHT22;2837;50.990;7.124;2022-12-01T19:42:27;8.10;99.90
5631;DHT22;2837;50.990;7.124;2022-12-01T19:44:54;8.10;99.90
5631;DHT22;2837;50.990;7.124;2022-12-01T19:47:20;8.10;99.90
5631;DHT22;2837;50.990;7.124;2022-12-01T19:49:45;8.20;99.90
5631;DHT22;2837;50.990;7.124;2022-12-01T19:52:11;8.20;99.90
5631;DHT22;2837;50.990;7.124;2022-12-01T19:54:37;8.20;99.90
5631;DHT22;2837;50.990;7.124;2022-12-01T19:57:03;8.10;99.90
5631;DHT22;2837;50.990;7.124;2022-12-01T19:59:28;8.10;99.90
5631;DHT22;2837;50.990;7.124;2022-12-01T20:01:54;8.10;99.90
5631;DHT22;2837;50.990;7.124;2022-12-01T20:04:20;8.00;99.90
5631;DHT22;2837;50.990;7.124;2022-12-01T20:06:45;8.00;99.90
5631;DHT22;2837;50.990;7.124;2022-12-01T20:09:11;8.00;99.90
5631;DHT22;2837;50.990;7.124;2022-12-01T20:11:36;8.10;99.90
5631;DHT22;2837;50.990;7.124;2022-12-01T20:14:04;8.10;99.90
5631;DHT22;2837;50.990;7.124;2022-12-01T20:16:31;8.10;99.90
5631;DHT22;2837;50.990;7.124;2022-12-01T20:19:01;8.10;99.90
5631;DHT22;2837;50.990;7.124;2022-12-01T20:21:29;8.20;99.90
5631;DHT22;2837;50.990;7.124;2022-12-01T20:24:01;8.10;99.90
5631;DHT22;2837;50.990;7.124;2022-12-01T20:26:29;8.10;99.90
5631;DHT22;2837;50.990;7.124;2022-12-01T20:28:59;8.10;99.90
5631;DHT22;2837;50.990;7.124;2022-12-01T20:31:27;8.10;99.90
5631;DHT22;2837;50.990;7.124;2022-12-01T20:33:54;8.00;99.90
5631;DHT22;2837;50.990;7.124;2022-12-01T20:36:20;8.00;99.90
5631;DHT22;2837;50.990;7.124;2022-12-01T20:38:47;8.00;99.90
5631;DHT22;2837;50.990;7.124;2022-12-01T20:41:13;7.90;99.90
5631;DHT22;2837;50.990;7.124;2022-12-01T20:43:38;7.90;99.90
5631;DHT22;2837;50.990;7.124;2022-12-01T20:46:04;8.00;99.90
5631;DHT22;2837;50.990;7.124;2022-12-01T20:48:30;8.00;99.90
5631;DHT22;2837;50.990;7.124;2022-12-01T20:50:59;8.00;99.90
5631;DHT22;2837;50.990;7.124;2022-12-01T20:53:25;7.90;99.90
5631;DHT22;2837;50.990;7.124;2022-12-01T20:55:50;7.90;99.90
5631;DHT22;2837;50.990;7.124;2022-12-01T20:58:16;7.90;99.90
5631;DHT22;2837;50.990;7.124;2022-12-01T21:00:41;7.80;99.90
5631;DHT22;2837;50.990;7.124;2022-12-01T21:03:08;7.80;99.90
5631;DHT22;2837;50.990;7.124;2022-12-01T21:05:38;7.80;99.90
5631;DHT22;2837;50.990;7.124;2022-12-01T21:08:06;7.90;99.90
5631;DHT22;2837;50.990;7.124;2022-12-01T21:10:38;8.00;99.90
5631;DHT22;2837;50.990;7.124;2022-12-01T21:13:18;8.00;99.90
5631;DHT22;2837;50.990;7.124;2022-12-01T21:16:05;7.90;99.90
5631;DHT22;2837;50.990;7.124;2022-12-01T21:18:50;7.90;99.90
5631;DHT22;2837;50.990;7.124;2022-12-01T21:21:29;8.00;99.90
5631;DHT22;2837;50.990;7.124;2022-12-01T21:24:22;8.00;99.90
5631;DHT22;2837;50.990;7.124;2022-12-01T21:26:58;8.00;99.90
5631;DHT22;2837;50.990;7.124;2022-12-01T21:29:26;8.00;99.90
5631;DHT22;2837;50.990;7.124;2022-12-01T21:31:55;7.90;99.90
5631;DHT22;2837;50.990;7.124;2022-12-01T21:34:24;8.10;99.90
5631;DHT22;2837;50.990;7.124;2022-12-01T21:36:55;8.10;99.90
5631;DHT22;2837;50.990;7.124;2022-12-01T21:39:22;8.10;99.90
5631;DHT22;2837;50.990;7.124;2022-12-01T21:41:49;8.10;99.90
5631;DHT22;2837;50.990;7.124;2022-12-01T21:44:18;8.00;99.90
5631;DHT22;2837;50.990;7.124;2022-12-01T21:46:44;8.00;99.90
5631;DHT22;2837;50.990;7.124;2022-12-01T21:49:14;8.00;99.90
5631;DHT22;2837;50.990;7.124;2022-12-01T21:51:40;8.00;99.90
5631;DHT22;2837;50.990;7.124;2022-12-01T21:54:12;8.10;99.90
5631;DHT22;2837;50.990;7.124;2022-12-01T21:56:39;8.00;99.90
5631;DHT22;2837;50.990;7.124;2022-12-01T21:59:19;8.00;99.90
